Time;durP1;ratioP1;P1;durP2;ratioP2;P2;SDS_P1;SDS_P2;PMS_P1;PMS_P2;Temp;Humidity;BMP_temperature;BMP_pressure;BME280_temperature;BME280_humidity;BME280_pressure;Samples;Min_cycle;Max_cycle;Signal;HPM_P1;HPM_P2
2021/01/28 00:01:39;;;;;;;6.72;2.63;;;6.90;93.20;;;;;;5115466;28;20489;-79
2021/01/28 00:04:05;;;;;;;7.22;2.65;;;6.90;93.20;;;;;;5115454;28;20043;-79
2021/01/28 00:06:30;;;;;;;9.38;3.15;;;6.80;93.20;;;;;;5114804;28;20069;-79
2021/01/28 00:08:56;;;;;;;7.28;2.60;;;6.80;93.20;;;;;;5114978;28;20122;-79
2021/01/28 00:11:22;;;;;;;7.72;2.88;;;6.90;93.20;;;;;;5114946;28;20129;-79
2021/01/28 00:13:47;;;;;;;6.32;2.50;;;6.80;93.20;;;;;;5114641;28;20121;-79
2021/01/28 00:16:13;;;;;;;6.80;2.50;;;6.80;93.20;;;;;;5094841;28;20067;-79
2021/01/28 00:18:39;;;;;;;6.40;2.70;;;6.80;93.20;;;;;;5115075;28;20043;-79
2021/01/28 00:21:05;;;;;;;8.10;3.42;;;6.80;93.20;;;;;;5114700;28;20489;-79
2021/01/28 00:23:31;;;;;;;5.72;2.38;;;6.80;93.20;;;;;;5114822;28;20070;-79
2021/01/28 00:25:56;;;;;;;6.97;2.65;;;6.90;93.30;;;;;;5078783;28;20044;-79
2021/01/28 00:28:22;;;;;;;6.25;2.50;;;6.80;93.20;;;;;;5114373;28;20039;-79
2021/01/28 00:30:51;;;;;;;6.90;2.50;;;6.90;93.30;;;;;;5096023;28;20049;-79
2021/01/28 00:33:21;;;;;;;6.07;2.20;;;6.80;93.30;;;;;;5114687;28;20040;-79
2021/01/28 00:35:49;;;;;;;6.32;2.20;;;6.80;93.30;;;;;;5077743;28;20390;-79
2021/01/28 00:38:21;;;;;;;5.30;2.30;;;7.00;93.30;;;;;;5096218;28;20100;-79
2021/01/28 00:40:47;;;;;;;5.78;1.98;;;6.80;93.30;;;;;;5114265;28;20040;-79
2021/01/28 00:43:12;;;;;;;4.97;2.00;;;6.80;93.30;;;;;;5114292;28;20478;-79
2021/01/28 00:45:38;;;;;;;6.15;2.00;;;6.80;93.30;;;;;;5096055;28;20076;-79
2021/01/28 00:48:04;;;;;;;4.47;1.73;;;6.90;93.40;;;;;;5113965;28;20036;-79
2021/01/28 00:50:33;;;;;;;7.43;1.98;;;6.80;93.30;;;;;;5114114;28;20088;-79
2021/01/28 00:52:59;;;;;;;3.88;1.58;;;6.80;93.30;;;;;;5114471;28;20044;-79
2021/01/28 00:55:25;;;;;;;3.63;1.60;;;6.80;93.40;;;;;;5095535;28;20046;-79
2021/01/28 00:57:51;;;;;;;4.93;1.63;;;6.80;93.30;;;;;;5113760;28;20046;-79
2021/01/28 01:00:25;;;;;;;6.28;2.00;;;6.80;93.30;;;;;;5113904;28;20044;-79
2021/01/28 01:02:51;;;;;;;6.63;1.90;;;6.90;93.40;;;;;;5113817;28;20047;-79
2021/01/28 01:05:19;;;;;;;4.50;1.63;;;6.90;93.40;;;;;;5113858;28;20039;-79
2021/01/28 01:07:47;;;;;;;4.13;1.67;;;6.80;93.40;;;;;;5113777;28;20092;-79
2021/01/28 01:10:24;;;;;;;5.10;1.80;;;6.90;93.40;;;;;;5114314;28;20367;-79
2021/01/28 01:12:50;;;;;;;7.93;2.13;;;6.80;93.40;;;;;;5096194;28;20119;-79
2021/01/28 01:15:16;;;;;;;6.47;2.15;;;6.80;93.40;;;;;;5114239;28;20536;-79
2021/01/28 01:17:42;;;;;;;5.07;1.80;;;6.80;93.40;;;;;;5114108;28;20059;-78
2021/01/28 01:20:08;;;;;;;5.10;1.95;;;6.80;93.40;;;;;;5113926;28;20032;-78
2021/01/28 01:22:34;;;;;;;5.68;1.88;;;6.80;93.40;;;;;;5113788;28;20031;-79
2021/01/28 01:25:00;;;;;;;6.22;2.15;;;6.70;93.40;;;;;;5114244;28;20035;-79
2021/01/28 01:27:25;;;;;;;5.85;1.73;;;6.80;93.40;;;;;;5114094;28;20039;-79
2021/01/28 01:29:51;;;;;;;4.28;1.50;;;6.90;93.40;;;;;;5113530;28;20036;-79
2021/01/28 01:32:17;;;;;;;7.00;2.00;;;6.80;93.40;;;;;;5113583;28;20438;-79
2021/01/28 01:34:43;;;;;;;6.30;2.35;;;6.80;93.40;;;;;;5095296;28;20048;-79
2021/01/28 01:37:09;;;;;;;5.55;1.92;;;6.80;93.40;;;;;;5112369;28;20031;-79
2021/01/28 01:39:34;;;;;;;4.70;2.13;;;6.80;93.40;;;;;;5095173;28;20069;-79
2021/01/28 01:42:03;;;;;;;5.50;2.13;;;6.80;93.40;;;;;;5113246;28;20460;-79
2021/01/28 01:44:29;;;;;;;7.20;1.88;;;6.80;93.40;;;;;;5113785;28;20100;-79
2021/01/28 01:47:09;;;;;;;4.40;1.30;;;6.80;93.70;;;;;;5095025;28;20051;-79
2021/01/28 01:49:34;;;;;;;5.32;1.60;;;6.80;93.40;;;;;;5097221;28;20043;-79
2021/01/28 01:52:00;;;;;;;4.05;1.40;;;6.80;93.40;;;;;;5094324;28;20105;-79
2021/01/28 01:54:31;;;;;;;4.53;1.33;;;6.80;93.40;;;;;;5113047;28;20134;-79
2021/01/28 01:57:01;;;;;;;3.42;1.40;;;6.80;93.40;;;;;;5095970;28;20063;-79
2021/01/28 01:59:33;;;;;;;3.92;1.50;;;6.80;93.50;;;;;;5113464;28;20047;-79
2021/01/28 02:02:04;;;;;;;4.43;1.58;;;6.80;93.50;;;;;;5112943;28;20031;-79
2021/01/28 02:04:31;;;;;;;3.97;1.42;;;6.80;93.50;;;;;;5113438;28;20093;-79
2021/01/28 02:07:18;;;;;;;5.35;1.58;;;6.80;93.50;;;;;;5093378;28;20044;-79
2021/01/28 02:09:43;;;;;;;4.38;1.40;;;6.80;93.50;;;;;;5094743;28;20047;-79
2021/01/28 02:12:09;;;;;;;6.57;1.65;;;6.80;93.50;;;;;;5113452;28;20046;-79
2021/01/28 02:14:37;;;;;;;4.10;1.60;;;6.80;93.50;;;;;;5112795;28;20044;-79
2021/01/28 02:17:10;;;;;;;4.63;1.58;;;6.80;93.50;;;;;;5112512;28;20055;-79
2021/01/28 02:20:06;;;;;;;7.22;1.77;;;6.80;93.50;;;;;;5112685;28;20173;-79
2021/01/28 02:23:01;;;;;;;4.72;1.40;;;6.80;93.50;;;;;;5094951;28;20039;-79
2021/01/28 02:25:31;;;;;;;4.40;1.30;;;6.80;93.50;;;;;;5091403;28;20090;-79
2021/01/28 02:28:02;;;;;;;2.53;1.02;;;6.90;93.50;;;;;;5113035;28;20043;-79
2021/01/28 02:30:31;;;;;;;4.82;1.38;;;6.80;93.50;;;;;;5093063;28;20040;-79
2021/01/28 02:32:57;;;;;;;5.97;1.60;;;6.80;93.50;;;;;;5112693;28;20386;-79
2021/01/28 02:35:26;;;;;;;4.90;1.80;;;6.80;93.50;;;;;;5112642;28;20075;-79
2021/01/28 02:37:52;;;;;;;2.97;1.35;;;6.80;93.50;;;;;;5094188;28;20044;-79
2021/01/28 02:40:23;;;;;;;2.97;1.25;;;6.90;93.50;;;;;;5094894;28;20046;-79
2021/01/28 02:42:48;;;;;;;2.50;1.10;;;6.80;93.50;;;;;;5112561;28;20114;-79
2021/01/28 02:45:21;;;;;;;3.58;1.05;;;6.80;93.50;;;;;;5112634;28;20061;-79
2021/01/28 02:47:52;;;;;;;3.08;1.05;;;6.80;93.50;;;;;;5110872;28;20405;-78
2021/01/28 02:50:18;;;;;;;2.97;0.90;;;6.90;93.50;;;;;;5112745;28;20093;-79
2021/01/28 02:52:43;;;;;;;2.55;0.80;;;6.90;93.50;;;;;;5112378;28;20067;-79
2021/01/28 02:55:10;;;;;;;2.60;0.90;;;6.80;93.50;;;;;;5112336;28;20460;-79
2021/01/28 02:57:35;;;;;;;2.70;1.10;;;6.80;93.50;;;;;;5112471;28;20092;-79
2021/01/28 03:00:01;;;;;;;3.60;1.13;;;6.80;93.50;;;;;;5092625;28;20044;-79
2021/01/28 03:02:27;;;;;;;3.80;1.20;;;6.80;93.50;;;;;;5112343;28;20036;-79
2021/01/28 03:04:53;;;;;;;4.75;0.98;;;6.80;93.50;;;;;;5093918;28;20039;-79
2021/01/28 03:07:18;;;;;;;3.20;1.23;;;6.80;93.50;;;;;;5112404;28;20051;-79
2021/01/28 03:09:44;;;;;;;3.38;1.45;;;6.90;93.50;;;;;;5112660;28;20039;-79
2021/01/28 03:12:10;;;;;;;4.85;1.30;;;6.80;93.50;;;;;;5112355;28;20050;-79
2021/01/28 03:14:36;;;;;;;2.38;0.95;;;6.80;93.50;;;;;;5111873;28;20040;-79
2021/01/28 03:17:04;;;;;;;3.20;1.00;;;6.80;93.50;;;;;;5094024;28;20044;-79
2021/01/28 03:19:29;;;;;;;2.50;0.75;;;6.80;93.50;;;;;;5112339;28;20497;-79
2021/01/28 03:21:55;;;;;;;2.95;1.33;;;6.80;93.50;;;;;;5112146;28;20119;-79
2021/01/28 03:24:21;;;;;;;5.43;1.50;;;6.80;93.50;;;;;;5112076;28;20485;-79
2021/01/28 03:26:46;;;;;;;3.47;1.42;;;6.80;93.50;;;;;;5092306;28;20044;-79
2021/01/28 03:29:13;;;;;;;2.28;1.00;;;6.90;93.80;;;;;;5111914;28;20050;-79
2021/01/28 03:31:40;;;;;;;3.08;1.23;;;6.80;93.50;;;;;;5111868;28;20043;-79
2021/01/28 03:34:06;;;;;;;3.40;1.20;;;6.80;93.50;;;;;;5076981;28;20066;-79
2021/01/28 03:36:32;;;;;;;5.28;1.42;;;6.80;93.50;;;;;;5091998;28;20123;-79
2021/01/28 03:38:59;;;;;;;3.80;1.40;;;6.90;93.50;;;;;;5111666;28;20127;-79
2021/01/28 03:41:24;;;;;;;2.35;0.80;;;6.80;93.70;;;;;;5111939;28;20066;-79
2021/01/28 03:43:50;;;;;;;2.88;1.00;;;6.80;93.50;;;;;;5111926;28;20067;-79
2021/01/28 03:46:16;;;;;;;3.55;1.38;;;6.80;93.50;;;;;;5111469;28;20063;-79
2021/01/28 03:48:42;;;;;;;2.42;0.80;;;6.80;93.50;;;;;;5093907;28;20409;-79
2021/01/28 03:51:08;;;;;;;2.15;0.95;;;6.90;93.50;;;;;;5111588;28;20040;-79
2021/01/28 03:53:33;;;;;;;3.25;1.10;;;6.80;93.50;;;;;;5091379;28;20546;-79
2021/01/28 03:55:59;;;;;;;1.90;0.90;;;6.80;93.50;;;;;;5111396;28;20043;-79
2021/01/28 03:58:25;;;;;;;1.80;0.70;;;6.80;93.50;;;;;;5111347;28;20043;-79
2021/01/28 04:00:51;;;;;;;3.08;1.15;;;6.80;93.50;;;;;;5113465;28;20036;-79
2021/01/28 04:03:17;;;;;;;2.17;0.95;;;6.90;93.50;;;;;;5096602;28;20039;-79
2021/01/28 04:05:43;;;;;;;3.42;1.13;;;6.90;93.50;;;;;;5114793;28;20044;-79
2021/01/28 04:08:09;;;;;;;2.22;1.00;;;6.80;93.50;;;;;;5115197;28;20490;-79
2021/01/28 04:10:37;;;;;;;1.73;0.80;;;6.90;93.50;;;;;;5114579;28;20039;-79
2021/01/28 04:13:04;;;;;;;2.03;0.95;;;6.80;93.50;;;;;;5114811;28;20088;-79
2021/01/28 04:15:31;;;;;;;2.72;1.10;;;6.90;93.50;;;;;;5114678;28;20031;-80
2021/01/28 04:17:57;;;;;;;2.38;1.10;;;6.80;93.50;;;;;;5095340;28;20436;-79
2021/01/28 04:20:26;;;;;;;2.03;1.00;;;6.80;93.50;;;;;;5114886;28;20035;-79
2021/01/28 04:22:52;;;;;;;2.38;1.13;;;6.80;93.50;;;;;;5115045;28;20063;-79
2021/01/28 04:25:19;;;;;;;2.55;1.00;;;6.80;93.50;;;;;;5079315;28;20050;-79
2021/01/28 04:27:46;;;;;;;2.42;1.08;;;6.80;93.50;;;;;;5096189;28;20055;-78
2021/01/28 04:30:18;;;;;;;1.88;0.88;;;6.80;93.50;;;;;;5096140;28;20097;-79
2021/01/28 04:32:44;;;;;;;2.30;0.90;;;6.80;93.50;;;;;;5114688;28;20081;-79
2021/01/28 04:35:10;;;;;;;3.55;1.20;;;6.80;93.50;;;;;;5096637;28;20434;-79
2021/01/28 04:37:36;;;;;;;3.55;1.33;;;6.80;93.50;;;;;;5114543;28;20071;-79
2021/01/28 04:40:06;;;;;;;3.05;1.17;;;6.80;93.50;;;;;;5114387;28;20098;-79
2021/01/28 04:42:43;;;;;;;4.03;1.23;;;6.80;93.50;;;;;;5096663;28;20044;-79
2021/01/28 04:45:10;;;;;;;3.03;0.90;;;6.80;93.80;;;;;;5095983;28;20044;-79
2021/01/28 04:47:40;;;;;;;3.33;1.35;;;6.80;93.50;;;;;;5093729;28;20044;-79
2021/01/28 04:50:06;;;;;;;3.33;1.30;;;6.80;93.50;;;;;;5114095;28;20055;-79
2021/01/28 04:52:40;;;;;;;4.35;1.30;;;6.80;93.50;;;;;;5114542;28;20043;-79
2021/01/28 04:55:11;;;;;;;2.40;1.10;;;6.80;93.50;;;;;;5114071;28;20048;-80
2021/01/28 04:57:36;;;;;;;2.85;1.10;;;6.80;93.50;;;;;;5114243;28;20043;-79
2021/01/28 05:00:04;;;;;;;1.98;1.00;;;6.70;93.50;;;;;;5114422;28;20066;-79
2021/01/28 05:02:31;;;;;;;1.38;0.70;;;6.80;93.50;;;;;;5079567;28;20040;-79
2021/01/28 05:04:59;;;;;;;2.72;1.23;;;6.80;93.50;;;;;;5114243;28;20043;-79
2021/01/28 05:07:28;;;;;;;1.63;0.80;;;6.80;93.50;;;;;;5114466;28;20036;-79
2021/01/28 05:10:14;;;;;;;3.78;1.20;;;6.80;93.50;;;;;;5114183;28;20039;-80
2021/01/28 05:12:40;;;;;;;2.65;1.10;;;6.80;93.50;;;;;;5095734;28;20072;-79
2021/01/28 05:15:24;;;;;;;2.40;1.08;;;6.70;93.50;;;;;;5095284;28;20040;-80
2021/01/28 05:18:21;;;;;;;1.90;0.80;;;6.70;93.50;;;;;;5095029;28;20057;-80
2021/01/28 05:20:47;;;;;;;3.05;1.00;;;6.80;93.80;;;;;;5097212;28;20044;-79
2021/01/28 05:23:31;;;;;;;3.83;1.20;;;6.70;93.50;;;;;;5114018;28;20062;-80
2021/01/28 05:25:58;;;;;;;7.10;1.60;;;6.70;93.50;;;;;;5068290;28;20044;-79
2021/01/28 05:28:34;;;;;;;3.10;0.85;;;6.70;93.50;;;;;;5113690;28;20131;-80
2021/01/28 05:31:00;;;;;;;9.30;1.58;;;6.70;93.50;;;;;;5113688;28;20040;-80
2021/01/28 05:33:41;;;;;;;4.63;1.52;;;6.70;93.80;;;;;;5095922;28;20079;-79
2021/01/28 05:36:24;;;;;;;3.88;1.27;;;6.70;93.60;;;;;;5113668;28;20695;-79
2021/01/28 05:38:54;;;;;;;2.90;1.40;;;6.70;93.50;;;;;;5077797;28;20036;-80
2021/01/28 05:41:34;;;;;;;3.78;1.00;;;6.70;93.60;;;;;;5113706;28;20396;-80
2021/01/28 05:44:26;;;;;;;2.30;1.05;;;6.60;93.50;;;;;;5114260;28;20493;-80
2021/01/28 05:47:02;;;;;;;2.72;1.00;;;6.60;93.60;;;;;;5114234;28;20039;-80
2021/01/28 05:49:28;;;;;;;4.70;1.50;;;6.60;93.60;;;;;;5074556;28;20044;-80
2021/01/28 05:51:54;;;;;;;4.10;1.10;;;6.60;93.50;;;;;;5114138;28;20508;-80
2021/01/28 05:54:23;;;;;;;2.65;1.10;;;6.60;93.50;;;;;;5114141;28;20126;-80
2021/01/28 05:57:06;;;;;;;3.60;1.05;;;6.60;93.60;;;;;;5095153;28;20047;-80
2021/01/28 06:00:02;;;;;;;2.72;1.00;;;6.50;93.50;;;;;;5092184;28;20035;-80
2021/01/28 06:03:03;;;;;;;1.88;0.90;;;6.60;93.60;;;;;;5083587;28;20035;-80
2021/01/28 06:05:55;;;;;;;3.58;0.95;;;6.50;93.60;;;;;;5113732;28;20035;-80
2021/01/28 06:08:56;;;;;;;2.05;0.80;;;6.50;93.60;;;;;;5094261;28;20577;-80
2021/01/28 06:11:36;;;;;;;1.67;0.70;;;6.50;93.60;;;;;;5100867;28;20035;-81
2021/01/28 06:14:27;;;;;;;1.75;0.70;;;6.50;93.60;;;;;;5095134;28;20277;-80
2021/01/28 06:17:27;;;;;;;2.70;0.93;;;6.40;93.60;;;;;;5113102;28;20043;-80
2021/01/28 06:20:29;;;;;;;2.47;0.98;;;6.40;93.60;;;;;;5112572;28;20031;-80
2021/01/28 06:23:23;;;;;;;1.88;0.70;;;6.40;93.60;;;;;;5112064;28;20048;-80
2021/01/28 06:26:16;;;;;;;1.10;0.65;;;6.30;93.60;;;;;;5080215;28;20036;-81
2021/01/28 06:29:14;;;;;;;3.00;1.02;;;6.20;93.50;;;;;;5081447;28;20048;-80
2021/01/28 06:32:09;;;;;;;2.85;0.50;;;6.30;93.60;;;;;;5094335;28;20085;-80
2021/01/28 06:35:03;;;;;;;2.05;0.93;;;6.20;93.60;;;;;;5111345;28;20047;-80
2021/01/28 06:37:51;;;;;;;1.35;0.73;;;6.20;93.60;;;;;;5093560;28;20101;-81
2021/01/28 06:40:25;;;;;;;1.77;0.70;;;6.20;93.60;;;;;;5113083;28;20039;-80
2021/01/28 06:42:58;;;;;;;1.77;0.52;;;6.20;93.60;;;;;;5113180;28;20104;-80
2021/01/28 06:45:29;;;;;;;0.75;0.40;;;6.10;93.60;;;;;;5093139;28;20040;-80
2021/01/28 06:48:08;;;;;;;1.00;0.60;;;6.10;93.60;;;;;;5112817;28;20040;-80
2021/01/28 06:50:43;;;;;;;2.78;0.60;;;6.10;93.70;;;;;;5112652;28;20100;-80
2021/01/28 06:53:16;;;;;;;1.80;0.57;;;6.10;93.70;;;;;;5092905;28;20055;-80
2021/01/28 06:55:51;;;;;;;0.88;0.43;;;6.10;93.70;;;;;;5112266;28;20043;-80
2021/01/28 06:58:41;;;;;;;1.15;0.63;;;6.00;93.60;;;;;;5112524;28;20061;-79
2021/01/28 07:01:28;;;;;;;1.30;0.50;;;6.10;93.60;;;;;;5112263;28;20458;-80
2021/01/28 07:04:10;;;;;;;0.80;0.50;;;6.10;93.60;;;;;;5112561;28;20526;-80
2021/01/28 07:07:01;;;;;;;1.58;0.50;;;6.00;93.60;;;;;;5094125;28;20092;-80
2021/01/28 07:09:41;;;;;;;1.45;0.52;;;6.00;93.60;;;;;;5112456;28;20122;-80
2021/01/28 07:12:11;;;;;;;1.55;0.60;;;6.00;93.60;;;;;;5091119;28;20044;-80
2021/01/28 07:14:38;;;;;;;2.03;0.68;;;6.00;93.60;;;;;;5094745;28;20098;-80
2021/01/28 07:17:17;;;;;;;0.63;0.40;;;6.00;93.60;;;;;;5112699;28;20070;-80
2021/01/28 07:19:51;;;;;;;1.42;0.55;;;5.90;93.60;;;;;;5091763;28;20040;-80
2021/01/28 07:22:36;;;;;;;1.70;0.77;;;6.00;93.60;;;;;;5094953;28;20039;-80
2021/01/28 07:25:31;;;;;;;0.75;0.45;;;6.00;93.60;;;;;;5093034;28;20032;-80
2021/01/28 07:28:03;;;;;;;0.95;0.50;;;6.00;93.70;;;;;;5112211;28;20044;-80
2021/01/28 07:30:52;;;;;;;0.95;0.40;;;6.00;93.90;;;;;;5112526;28;20065;-80
2021/01/28 07:33:36;;;;;;;2.00;0.80;;;5.90;93.60;;;;;;5111893;28;20048;-80
2021/01/28 07:36:22;;;;;;;3.45;0.80;;;5.90;93.60;;;;;;5095128;28;20397;-80
2021/01/28 07:38:55;;;;;;;1.02;0.73;;;5.90;93.60;;;;;;5115263;28;20114;-80
2021/01/28 07:41:44;;;;;;;0.93;0.47;;;5.90;93.60;;;;;;5097614;28;20093;-80
2021/01/28 07:44:39;;;;;;;0.45;0.45;;;5.80;93.60;;;;;;5097117;28;20509;-80
2021/01/28 07:47:14;;;;;;;0.40;0.40;;;5.90;93.60;;;;;;5102334;28;20043;-80
2021/01/28 07:50:08;;;;;;;1.13;0.43;;;5.90;93.60;;;;;;5093921;28;20051;-80
2021/01/28 07:52:38;;;;;;;1.67;0.50;;;5.90;93.60;;;;;;5115145;28;20031;-79
2021/01/28 07:55:05;;;;;;;0.60;0.40;;;5.80;93.60;;;;;;5115719;28;20097;-80
2021/01/28 07:57:43;;;;;;;1.42;0.40;;;5.80;93.60;;;;;;5097610;28;20588;-80
2021/01/28 08:00:16;;;;;;;0.73;0.40;;;5.80;93.60;;;;;;5115771;28;20089;-80
2021/01/28 08:02:43;;;;;;;0.63;0.40;;;5.80;93.60;;;;;;5115113;28;20114;-80
2021/01/28 08:05:19;;;;;;;0.40;0.20;;;5.80;93.60;;;;;;5096890;28;20106;-80
2021/01/28 08:07:47;;;;;;;0.55;0.50;;;5.80;93.60;;;;;;5115122;28;20040;-80
2021/01/28 08:10:30;;;;;;;1.35;0.45;;;5.80;93.60;;;;;;5096632;28;20131;-80
2021/01/28 08:46:47;;;;;;;0.93;0.40;;;5.70;93.50;;;;;;1422186;23;20360;-81
2021/01/28 08:53:24;;;;;;;0.30;0.30;;;5.70;93.50;;;;;;4955833;29;20136;-82
2021/01/28 09:15:22;;;;;;;0.65;0.43;;;5.90;93.40;;;;;;4878974;29;20138;-81
2021/01/28 09:25:18;;;;;;;1.38;0.60;;;5.80;93.40;;;;;;4802109;29;20125;-84
2021/01/28 09:50:48;;;;;;;0.40;0.40;;;5.90;93.30;;;;;;4838544;29;20065;-85
2021/01/28 09:53:21;;;;;;;1.17;0.70;;;6.00;93.30;;;;;;4823965;29;20187;-85
2021/01/28 09:55:57;;;;;;;1.23;0.50;;;6.00;93.30;;;;;;4824731;29;20136;-88
2021/01/28 10:01:33;;;;;;;0.40;0.40;;;6.10;93.40;;;;;;4815055;29;20060;-81
2021/01/28 10:04:05;;;;;;;0.77;0.50;;;6.00;93.40;;;;;;4842202;29;20042;-84
2021/01/28 10:07:36;;;;;;;0.98;0.68;;;6.00;93.40;;;;;;4829004;29;20057;-84
2021/01/28 10:10:11;;;;;;;0.55;0.40;;;6.00;93.40;;;;;;4845495;29;20666;-83
2021/01/28 10:16:22;;;;;;;1.05;0.65;;;6.10;93.40;;;;;;4742220;30;20064;-83
2021/01/28 10:19:15;;;;;;;0.52;0.50;;;6.10;93.40;;;;;;4686825;30;20071;-83
2021/01/28 10:22:18;;;;;;;2.22;0.65;;;6.10;93.40;;;;;;4686393;30;20132;-85
2021/01/28 10:25:21;;;;;;;0.45;0.43;;;6.20;93.40;;;;;;4693376;30;20111;-82
2021/01/28 10:27:56;;;;;;;1.20;0.80;;;6.10;93.40;;;;;;4700891;30;20049;-84
2021/01/28 10:38:08;;;;;;;1.02;0.52;;;6.10;93.30;;;;;;4591939;31;20068;-83
2021/01/28 10:40:34;;;;;;;0.93;0.70;;;6.10;93.30;;;;;;4610602;31;20075;-81
2021/01/28 10:54:59;;;;;;;0.52;0.45;;;6.20;93.30;;;;;;4668150;30;20054;-80
2021/01/28 10:57:27;;;;;;;1.05;0.57;;;6.20;93.30;;;;;;4659424;30;20146;-79
2021/01/28 11:03:38;;;;;;;0.70;0.55;;;6.10;93.30;;;;;;4650968;30;20215;-80
2021/01/28 11:09:18;;;;;;;0.98;0.70;;;6.10;93.30;;;;;;4690467;30;20061;-82
2021/01/28 11:36:15;;;;;;;3.60;2.00;;;6.10;93.30;;;;;;5149875;27;20390;-82
2021/01/28 11:38:41;;;;;;;4.10;1.77;;;6.20;93.50;;;;;;5130858;27;20383;-82
2021/01/28 11:41:26;;;;;;;2.10;1.27;;;6.20;93.40;;;;;;5132998;28;20119;-84
2021/01/28 11:51:02;;;;;;;1.67;1.05;;;6.30;93.30;;;;;;4965826;28;20142;-83
2021/01/28 12:24:08;;;;;;;1.55;0.90;;;6.40;93.10;;;;;;4788302;29;20548;-81
2021/01/28 12:29:45;;;;;;;1.42;1.00;;;6.40;93.20;;;;;;4746451;30;20414;-81
2021/01/28 12:32:23;;;;;;;1.60;1.10;;;6.40;93.20;;;;;;4734439;30;20582;-81
2021/01/28 12:34:56;;;;;;;1.80;1.00;;;6.40;93.30;;;;;;4742801;30;20136;-83
2021/01/28 12:37:36;;;;;;;1.95;1.27;;;6.40;93.30;;;;;;4735209;30;20048;-86
2021/01/28 12:47:13;;;;;;;1.77;0.77;;;6.40;93.30;;;;;;4804689;29;20054;-80
2021/01/28 12:50:40;;;;;;;1.40;0.90;;;6.30;93.30;;;;;;4805117;29;20051;-83
2021/01/28 12:53:06;;;;;;;0.90;0.70;;;6.30;93.30;;;;;;4721668;30;20049;-79
2021/01/28 12:59:46;;;;;;;1.23;0.90;;;6.30;93.30;;;;;;4790824;29;20055;-80
2021/01/28 13:02:44;;;;;;;2.08;1.08;;;6.30;93.30;;;;;;4733899;30;20045;-82
2021/01/28 13:05:11;;;;;;;1.55;0.90;;;6.30;93.30;;;;;;4732766;30;20599;-80
2021/01/28 13:08:18;;;;;;;2.17;0.90;;;6.30;93.40;;;;;;4714249;30;20590;-82
2021/01/28 13:11:28;;;;;;;1.10;0.85;;;6.30;93.40;;;;;;4713615;30;20053;-81
2021/01/28 13:13:53;;;;;;;1.23;0.68;;;6.40;93.40;;;;;;4725001;30;20052;-78
2021/01/28 13:17:03;;;;;;;2.13;1.00;;;6.40;93.30;;;;;;4714933;30;20045;-79
2021/01/28 13:20:14;;;;;;;1.92;0.82;;;6.40;93.30;;;;;;4715141;30;20110;-85
2021/01/28 13:26:19;;;;;;;0.75;0.63;;;6.40;93.30;;;;;;4724949;30;20064;-80
2021/01/28 13:29:21;;;;;;;1.50;0.65;;;6.40;93.30;;;;;;4743584;30;20040;-81
2021/01/28 13:31:47;;;;;;;0.73;0.60;;;6.30;93.30;;;;;;4748640;30;20074;-81
2021/01/28 13:34:15;;;;;;;0.80;0.63;;;6.30;93.30;;;;;;4766316;30;20052;-80
2021/01/28 13:36:40;;;;;;;0.93;0.60;;;6.30;93.30;;;;;;4842431;29;20106;-78
2021/01/28 13:39:07;;;;;;;0.77;0.40;;;6.30;93.30;;;;;;4883195;29;20059;-79
2021/01/28 13:41:32;;;;;;;0.80;0.50;;;6.30;93.40;;;;;;4953028;28;20050;-78
2021/01/28 13:44:01;;;;;;;0.43;0.40;;;6.30;93.40;;;;;;4952394;29;20494;-79
2021/01/28 13:46:26;;;;;;;0.85;0.60;;;6.30;93.40;;;;;;4963245;28;20110;-77
2021/01/28 13:49:13;;;;;;;0.90;0.47;;;6.30;93.40;;;;;;4961311;28;20039;-81
2021/01/28 13:51:38;;;;;;;1.02;0.60;;;6.30;93.40;;;;;;4953067;28;20035;-78
2021/01/28 13:54:06;;;;;;;1.63;0.95;;;6.30;93.40;;;;;;4959784;28;20142;-77
2021/01/28 13:57:19;;;;;;;0.52;0.50;;;6.30;93.40;;;;;;5015199;28;20037;-81
2021/01/28 13:59:54;;;;;;;0.90;0.70;;;6.40;93.50;;;;;;4957162;28;20043;-81
2021/01/28 14:02:20;;;;;;;0.77;0.50;;;6.30;93.40;;;;;;5009466;28;20049;-78
2021/01/28 14:04:49;;;;;;;0.90;0.55;;;6.30;93.50;;;;;;5016093;28;20045;-79
2021/01/28 14:07:19;;;;;;;1.33;0.60;;;6.30;93.50;;;;;;5036120;28;20501;-78
2021/01/28 14:09:45;;;;;;;1.30;0.60;;;6.30;93.50;;;;;;5022458;28;20113;-78
2021/01/28 14:12:11;;;;;;;1.08;0.60;;;6.30;93.50;;;;;;5033462;28;20532;-78
2021/01/28 14:15:19;;;;;;;0.95;0.60;;;6.30;93.50;;;;;;5014376;28;20037;-82
2021/01/28 14:18:04;;;;;;;0.63;0.43;;;6.30;93.40;;;;;;5016119;28;20466;-81
2021/01/28 14:20:44;;;;;;;0.80;0.40;;;6.30;93.40;;;;;;5001780;28;20044;-80
2021/01/28 14:28:24;;;;;;;1.33;0.40;;;6.30;93.40;;;;;;4876253;29;20470;-81
2021/01/28 14:38:59;;;;;;;0.60;0.40;;;6.20;93.30;;;;;;4838474;29;20070;-84
2021/01/28 14:41:26;;;;;;;0.63;0.40;;;6.20;93.30;;;;;;4756077;29;20043;-82
2021/01/28 14:43:53;;;;;;;0.50;0.35;;;6.20;93.30;;;;;;4774534;29;20047;-83
2021/01/28 14:46:52;;;;;;;0.57;0.50;;;6.20;93.40;;;;;;4773625;29;20058;-84
2021/01/28 14:49:31;;;;;;;0.75;0.52;;;6.20;93.40;;;;;;4757455;30;20046;-85
2021/01/28 14:52:06;;;;;;;0.55;0.52;;;6.10;93.70;;;;;;4742771;30;20836;-88
2021/01/28 14:54:43;;;;;;;0.63;0.50;;;6.10;93.40;;;;;;4781121;29;20635;-80
2021/01/28 14:57:44;;;;;;;0.50;0.40;;;6.10;93.40;;;;;;4809728;29;20098;-79
2021/01/28 15:00:12;;;;;;;0.50;0.50;;;6.20;93.40;;;;;;4838414;29;20068;-76
2021/01/28 15:02:56;;;;;;;0.75;0.60;;;6.10;93.40;;;;;;4846319;29;20037;-79
2021/01/28 15:08:54;;;;;;;1.55;0.55;;;5.90;93.40;;;;;;4875815;29;20037;-79
2021/01/28 15:11:24;;;;;;;0.45;0.40;;;5.90;93.40;;;;;;4887361;29;20052;-79
2021/01/28 15:14:10;;;;;;;1.15;0.68;;;5.90;93.40;;;;;;4881029;29;20049;-80
2021/01/28 15:16:36;;;;;;;0.93;0.52;;;5.90;93.70;;;;;;4886995;29;20096;-81
2021/01/28 15:19:03;;;;;;;0.85;0.45;;;6.00;93.40;;;;;;4877246;29;20064;-79
2021/01/28 15:21:38;;;;;;;1.65;0.75;;;5.90;93.40;;;;;;4895970;29;20490;-79
2021/01/28 15:24:12;;;;;;;1.27;0.70;;;5.90;93.40;;;;;;4860496;29;20133;-79
2021/01/28 15:41:41;;;;;;;0.43;0.30;;;5.80;93.40;;;;;;5109279;27;20125;-80
2021/01/28 15:44:13;;;;;;;0.63;0.40;;;5.80;93.40;;;;;;5092418;28;20043;-84
2021/01/28 15:47:01;;;;;;;1.10;0.65;;;5.80;93.50;;;;;;5016272;28;20042;-86
2021/01/28 15:49:35;;;;;;;0.85;0.55;;;5.80;93.50;;;;;;4996516;28;20127;-84
2021/01/28 15:52:04;;;;;;;1.40;0.60;;;5.80;93.50;;;;;;5013304;28;20100;-83
2021/01/28 15:55:01;;;;;;;1.50;0.70;;;5.70;93.40;;;;;;5002008;28;20046;-87
2021/01/28 15:57:30;;;;;;;0.85;0.60;;;5.90;93.50;;;;;;4955048;28;20417;-83
2021/01/28 16:00:27;;;;;;;0.60;0.50;;;5.70;93.50;;;;;;4970641;28;20046;-86
2021/01/28 16:03:13;;;;;;;0.50;0.40;;;5.70;93.50;;;;;;4988606;28;20074;-83
2021/01/28 16:05:41;;;;;;;0.73;0.60;;;5.70;93.50;;;;;;4976497;28;20039;-82
2021/01/28 16:08:11;;;;;;;0.85;0.47;;;5.70;93.50;;;;;;4974685;28;20065;-83
2021/01/28 16:10:38;;;;;;;1.95;0.80;;;5.60;93.50;;;;;;4973064;28;20521;-83
2021/01/28 16:13:04;;;;;;;1.17;0.70;;;5.70;93.50;;;;;;4970835;28;20057;-83
2021/01/28 16:15:33;;;;;;;1.02;0.70;;;5.60;93.50;;;;;;4985484;28;20054;-82
2021/01/28 16:18:04;;;;;;;1.52;0.85;;;5.60;93.50;;;;;;4979233;28;20045;-85
2021/01/28 16:20:32;;;;;;;0.70;0.63;;;5.60;93.50;;;;;;5010282;28;20064;-83
2021/01/28 16:23:02;;;;;;;1.10;0.65;;;5.50;93.50;;;;;;5011328;28;20038;-83
2021/01/28 16:29:44;;;;;;;0.90;0.75;;;5.50;93.60;;;;;;4993086;28;20412;-84
2021/01/28 16:47:05;;;;;;;1.42;0.65;;;5.20;93.50;;;;;;4927932;29;20054;-85
2021/01/28 16:50:14;;;;;;;0.70;0.50;;;5.10;93.40;;;;;;4929336;29;20047;-87
2021/01/28 16:52:39;;;;;;;1.08;0.70;;;5.10;93.50;;;;;;4916953;29;20067;-84
2021/01/28 16:55:06;;;;;;;1.92;1.10;;;5.10;93.50;;;;;;4900753;29;20127;-84
2021/01/28 17:02:23;;;;;;;1.25;0.73;;;5.00;93.50;;;;;;4976788;28;20067;-85
2021/01/28 17:13:02;;;;;;;1.05;0.73;;;4.90;93.80;;;;;;4982647;28;20134;-86
2021/01/28 17:15:28;;;;;;;0.80;0.50;;;4.80;93.50;;;;;;4960399;28;20118;-85
2021/01/28 17:17:56;;;;;;;1.90;0.93;;;4.90;93.50;;;;;;4981731;28;20022;-85
2021/01/28 17:20:24;;;;;;;2.20;1.05;;;4.90;93.50;;;;;;4990835;28;20054;-85
2021/01/28 17:22:50;;;;;;;2.00;1.00;;;4.80;93.50;;;;;;4968443;28;20066;-84
2021/01/28 17:25:19;;;;;;;1.15;0.70;;;4.80;93.50;;;;;;5029287;28;20053;-85
2021/01/28 17:27:46;;;;;;;1.88;0.98;;;4.80;93.50;;;;;;5025320;28;20057;-85
2021/01/28 17:30:15;;;;;;;1.65;0.75;;;5.00;93.50;;;;;;5023223;28;20050;-85
2021/01/28 17:32:42;;;;;;;1.90;0.93;;;4.80;93.70;;;;;;5018434;28;20108;-85
2021/01/28 17:35:09;;;;;;;1.05;0.80;;;4.90;93.50;;;;;;5022401;28;20046;-84
2021/01/28 17:37:35;;;;;;;1.50;0.77;;;4.90;93.50;;;;;;5018269;28;20061;-85
2021/01/28 17:40:01;;;;;;;0.57;0.55;;;4.90;93.50;;;;;;5011696;28;20046;-86
2021/01/28 17:42:26;;;;;;;0.98;0.70;;;4.80;93.40;;;;;;5026744;28;20046;-85
2021/01/28 17:44:52;;;;;;;1.67;1.00;;;4.80;93.50;;;;;;5035135;28;20086;-85
2021/01/28 17:47:18;;;;;;;1.67;0.90;;;4.90;93.50;;;;;;5062061;28;20482;-85
2021/01/28 17:49:43;;;;;;;0.80;0.70;;;4.90;93.50;;;;;;5046810;28;20123;-84
2021/01/28 17:52:09;;;;;;;1.90;0.70;;;4.80;93.50;;;;;;5044985;28;20040;-85
2021/01/28 17:54:35;;;;;;;1.17;0.82;;;4.80;93.50;;;;;;5062028;28;20044;-85
2021/01/28 17:57:01;;;;;;;1.40;0.77;;;4.80;93.50;;;;;;5061016;28;20085;-85